Time;durP1;ratioP1;P1;durP2;ratioP2;P2;SDS_P1;SDS_P2;PMS_P1;PMS_P2;Temp;Humidity;BMP_temperature;BMP_pressure;BME280_temperature;BME280_humidity;BME280_pressure;Samples;Min_cycle;Max_cycle;Signal;HPM_P1;HPM_P2
2022/08/13 00:00:53;;;;;;;21.70;14.47;;;;;;;;;;5088876;28;20462;-73
2022/08/13 00:03:20;;;;;;;21.53;15.13;;;;;;;;;;5091941;28;20420;-73
2022/08/13 00:06:10;;;;;;;29.73;17.43;;;;;;;;;;5084947;28;20421;-72
2022/08/13 00:08:55;;;;;;;30.27;19.03;;;;;;;;;;5084153;28;20531;-73
2022/08/13 00:14:31;;;;;;;20.57;15.20;;;;;;;;;;5090841;28;20444;-73
2022/08/13 00:17:03;;;;;;;19.40;15.33;;;;;;;;;;5103798;28;20443;-73
2022/08/13 00:19:38;;;;;;;29.73;15.10;;;;;;;;;;5104858;28;20423;-73
2022/08/13 00:22:10;;;;;;;18.90;16.73;;;;;;;;;;5104871;28;20447;-73
2022/08/13 00:24:57;;;;;;;20.97;13.47;;;;;;;;;;5102052;28;20507;-73
2022/08/13 00:27:28;;;;;;;19.73;13.30;;;;;;;;;;5086400;28;20452;-73
2022/08/13 00:30:08;;;;;;;21.07;14.53;;;;;;;;;;5102670;28;20439;-73
2022/08/13 00:32:37;;;;;;;25.40;15.40;;;;;;;;;;5100344;28;20817;-72
2022/08/13 00:35:03;;;;;;;25.80;16.03;;;;;;;;;;5100626;28;20426;-73
2022/08/13 00:37:43;;;;;;;27.63;16.07;;;;;;;;;;5107078;28;20431;-73
2022/08/13 00:40:19;;;;;;;27.00;15.87;;;;;;;;;;5105284;28;20443;-73
2022/08/13 00:43:03;;;;;;;29.43;17.17;;;;;;;;;;5104522;28;20444;-72
2022/08/13 00:45:32;;;;;;;34.27;18.63;;;;;;;;;;5105788;28;20400;-73
2022/08/13 00:50:50;;;;;;;22.10;16.70;;;;;;;;;;5085500;28;20452;-73
2022/08/13 00:53:19;;;;;;;28.07;16.87;;;;;;;;;;5085141;28;20432;-72
2022/08/13 00:55:50;;;;;;;26.87;16.83;;;;;;;;;;5084108;28;20413;-73
2022/08/13 00:58:21;;;;;;;29.17;17.03;;;;;;;;;;5102217;28;20445;-72
2022/08/13 01:01:00;;;;;;;20.10;15.20;;;;;;;;;;5084318;28;20444;-73
2022/08/13 01:03:31;;;;;;;27.53;18.60;;;;;;;;;;5083000;28;20519;-73
2022/08/13 01:06:18;;;;;;;33.87;21.90;;;;;;;;;;5078279;28;20947;-73
2022/08/13 01:08:48;;;;;;;35.53;23.07;;;;;;;;;;5070244;28;20456;-73
2022/08/13 01:11:24;;;;;;;37.20;23.47;;;;;;;;;;5058794;28;20566;-72
2022/08/13 01:13:52;;;;;;;36.13;28.00;;;;;;;;;;5076668;28;20428;-73
2022/08/13 01:16:20;;;;;;;47.87;27.40;;;;;;;;;;5077111;28;20456;-73
2022/08/13 01:18:50;;;;;;;39.20;24.07;;;;;;;;;;5097820;28;20455;-74
2022/08/13 01:21:23;;;;;;;42.90;25.10;;;;;;;;;;5063901;28;20451;-73
2022/08/13 01:24:10;;;;;;;39.70;27.13;;;;;;;;;;5091351;28;20417;-73
2022/08/13 01:26:40;;;;;;;42.93;29.07;;;;;;;;;;5076584;28;20474;-73
2022/08/13 01:29:15;;;;;;;43.43;28.97;;;;;;;;;;5065778;28;20461;-72
2022/08/13 01:31:51;;;;;;;44.20;27.90;;;;;;;;;;5052430;28;20484;-73
2022/08/13 01:34:20;;;;;;;45.83;28.30;;;;;;;;;;5099255;28;20430;-73
2022/08/13 01:36:53;;;;;;;48.47;28.33;;;;;;;;;;5099739;28;20775;-73
2022/08/13 01:39:25;;;;;;;42.43;27.63;;;;;;;;;;5099866;28;20842;-73
2022/08/13 01:42:06;;;;;;;34.97;24.80;;;;;;;;;;5099715;28;20453;-73
2022/08/13 01:44:35;;;;;;;32.67;23.23;;;;;;;;;;5083028;28;20436;-73
2022/08/13 01:52:51;;;;;;;37.37;24.60;;;;;;;;;;5089832;28;20504;-71
2022/08/13 01:55:19;;;;;;;38.13;27.43;;;;;;;;;;5091091;28;20849;-71
2022/08/13 01:57:50;;;;;;;41.70;30.53;;;;;;;;;;5077401;28;20448;-71
2022/08/13 02:00:21;;;;;;;56.00;32.70;;;;;;;;;;5093579;28;20764;-71
2022/08/13 02:02:56;;;;;;;45.40;27.43;;;;;;;;;;5094873;28;20427;-72
2022/08/13 02:05:26;;;;;;;44.43;28.97;;;;;;;;;;5093251;28;20420;-71
2022/08/13 02:08:13;;;;;;;43.10;30.00;;;;;;;;;;5079200;28;20508;-71
2022/08/13 02:10:45;;;;;;;51.43;31.43;;;;;;;;;;5092226;28;20781;-71
2022/08/13 02:13:13;;;;;;;42.47;30.30;;;;;;;;;;5068340;28;20425;-72
2022/08/13 02:15:46;;;;;;;44.53;29.77;;;;;;;;;;5091801;28;20428;-72
2022/08/13 02:18:18;;;;;;;52.07;32.00;;;;;;;;;;5091905;28;20453;-72
2022/08/13 02:20:49;;;;;;;39.00;26.30;;;;;;;;;;5094093;28;20484;-71
2022/08/13 02:23:21;;;;;;;54.90;30.07;;;;;;;;;;5079548;28;20460;-71
2022/08/13 02:26:08;;;;;;;55.30;30.67;;;;;;;;;;5092586;28;20437;-72
2022/08/13 02:28:37;;;;;;;47.20;30.90;;;;;;;;;;5079243;28;20439;-72
2022/08/13 02:31:03;;;;;;;41.63;28.70;;;;;;;;;;5082028;28;20550;-72
2022/08/13 02:33:47;;;;;;;44.43;31.40;;;;;;;;;;5061199;28;20486;-72
2022/08/13 02:36:20;;;;;;;53.60;33.50;;;;;;;;;;5074190;28;20415;-72
2022/08/13 02:38:58;;;;;;;52.43;29.83;;;;;;;;;;5046911;28;20457;-72
2022/08/13 02:41:40;;;;;;;46.87;31.40;;;;;;;;;;5086121;28;20412;-72
2022/08/13 02:44:20;;;;;;;32.73;21.87;;;;;;;;;;5074153;28;20431;-72
2022/08/13 02:47:01;;;;;;;24.37;15.93;;;;;;;;;;5073022;28;20427;-72
2022/08/13 02:49:27;;;;;;;19.13;14.93;;;;;;;;;;5072675;28;20472;-72
2022/08/13 02:52:12;;;;;;;16.40;13.77;;;;;;;;;;5072816;28;20451;-72
2022/08/13 02:54:40;;;;;;;12.10;9.57;;;;;;;;;;5072355;28;21028;-72
2022/08/13 02:57:21;;;;;;;11.17;9.47;;;;;;;;;;5074649;28;20448;-72
2022/08/13 02:59:48;;;;;;;13.87;9.23;;;;;;;;;;5092354;28;20869;-72
2022/08/13 03:02:32;;;;;;;11.63;9.13;;;;;;;;;;5092489;28;20435;-72
2022/08/13 03:05:03;;;;;;;8.13;7.33;;;;;;;;;;5076125;28;20439;-72
2022/08/13 03:07:31;;;;;;;11.20;7.57;;;;;;;;;;5075593;28;20491;-72
2022/08/13 03:10:17;;;;;;;24.20;14.00;;;;;;;;;;5092505;28;20856;-72
2022/08/13 03:12:46;;;;;;;19.67;13.60;;;;;;;;;;5049022;28;20480;-72
2022/08/13 03:15:13;;;;;;;18.23;13.70;;;;;;;;;;5088647;28;20837;-72
2022/08/13 03:17:40;;;;;;;21.30;14.07;;;;;;;;;;5071618;28;20584;-71
2022/08/13 03:20:16;;;;;;;23.80;16.90;;;;;;;;;;5062288;28;20436;-72
2022/08/13 03:22:53;;;;;;;38.47;25.13;;;;;;;;;;5091910;28;20444;-72
2022/08/13 03:25:20;;;;;;;40.43;25.50;;;;;;;;;;5092564;28;20476;-72
2022/08/13 03:27:50;;;;;;;38.07;26.83;;;;;;;;;;5092234;28;20447;-72
2022/08/13 03:30:22;;;;;;;38.27;24.57;;;;;;;;;;5092203;28;20419;-72
2022/08/13 03:32:55;;;;;;;39.90;25.27;;;;;;;;;;5090337;28;21017;-72
2022/08/13 03:35:26;;;;;;;37.80;26.57;;;;;;;;;;5072168;28;20425;-73
2022/08/13 03:38:10;;;;;;;39.83;26.90;;;;;;;;;;5071163;28;20795;-72
2022/08/13 03:43:25;;;;;;;38.03;26.77;;;;;;;;;;5071347;28;20452;-71
2022/08/13 03:45:54;;;;;;;38.73;28.40;;;;;;;;;;5071188;28;20496;-72
2022/08/13 03:48:23;;;;;;;44.30;27.23;;;;;;;;;;5071067;28;20476;-72
2022/08/13 03:50:50;;;;;;;33.97;25.73;;;;;;;;;;5072352;28;20456;-72
2022/08/13 03:53:21;;;;;;;36.30;25.57;;;;;;;;;;5071105;28;21179;-72
2022/08/13 03:56:08;;;;;;;35.80;23.53;;;;;;;;;;5071159;28;20448;-72
2022/08/13 03:58:38;;;;;;;43.07;27.23;;;;;;;;;;5087569;28;20451;-72
2022/08/13 04:01:06;;;;;;;40.80;25.10;;;;;;;;;;5070739;28;20467;-72
2022/08/13 04:03:40;;;;;;;42.03;27.40;;;;;;;;;;5072061;28;20427;-72
2022/08/13 04:06:16;;;;;;;49.40;29.63;;;;;;;;;;5070691;28;20460;-72
2022/08/13 04:08:44;;;;;;;41.77;27.53;;;;;;;;;;5070519;28;20466;-72
2022/08/13 04:11:18;;;;;;;47.50;28.77;;;;;;;;;;5070666;28;20955;-72
2022/08/13 04:13:47;;;;;;;44.00;25.70;;;;;;;;;;5070560;28;20904;-72
2022/08/13 04:16:34;;;;;;;36.53;24.07;;;;;;;;;;5070758;28;20519;-72
2022/08/13 04:19:03;;;;;;;34.50;23.20;;;;;;;;;;5071189;28;20456;-72
2022/08/13 04:21:43;;;;;;;36.73;23.50;;;;;;;;;;5070335;28;20956;-72
2022/08/13 04:24:11;;;;;;;40.70;22.37;;;;;;;;;;5070409;28;20428;-72
2022/08/13 04:26:43;;;;;;;28.40;22.90;;;;;;;;;;5070294;28;20928;-72
2022/08/13 04:29:13;;;;;;;35.40;22.00;;;;;;;;;;5070246;28;20494;-72
2022/08/13 04:31:45;;;;;;;36.03;23.93;;;;;;;;;;5070072;28;20448;-72
2022/08/13 04:34:18;;;;;;;37.47;25.20;;;;;;;;;;5081661;28;20460;-72
2022/08/13 04:37:07;;;;;;;37.30;23.70;;;;;;;;;;5085448;28;20435;-72
2022/08/13 04:39:35;;;;;;;39.00;23.67;;;;;;;;;;5088801;28;20426;-72
2022/08/13 04:42:22;;;;;;;43.20;23.97;;;;;;;;;;5105485;28;20442;-72
2022/08/13 04:45:03;;;;;;;39.30;24.57;;;;;;;;;;5105801;28;20431;-72
2022/08/13 04:47:38;;;;;;;31.03;23.13;;;;;;;;;;5090365;28;20471;-72
2022/08/13 04:50:06;;;;;;;36.63;21.53;;;;;;;;;;5103336;28;20432;-73
2022/08/13 04:52:36;;;;;;;32.50;22.17;;;;;;;;;;5102733;28;20539;-73
2022/08/13 04:55:03;;;;;;;33.27;23.20;;;;;;;;;;5064317;28;20431;-72
2022/08/13 04:57:34;;;;;;;31.67;20.37;;;;;;;;;;5070128;28;20944;-72
2022/08/13 05:00:24;;;;;;;30.80;21.10;;;;;;;;;;5071107;28;21012;-72
2022/08/13 05:02:52;;;;;;;28.67;21.07;;;;;;;;;;5069938;28;20432;-72
2022/08/13 05:05:24;;;;;;;33.43;22.07;;;;;;;;;;5086878;28;20801;-72
2022/08/13 05:07:52;;;;;;;34.43;20.57;;;;;;;;;;5069923;28;20452;-72
2022/08/13 05:10:20;;;;;;;34.90;21.43;;;;;;;;;;5069695;28;20488;-72
2022/08/13 05:13:03;;;;;;;35.80;21.30;;;;;;;;;;5069692;28;20870;-72
2022/08/13 05:15:32;;;;;;;36.27;21.60;;;;;;;;;;5086292;28;20432;-72
2022/08/13 05:18:13;;;;;;;37.27;22.73;;;;;;;;;;5070265;28;20460;-72
2022/08/13 05:20:54;;;;;;;33.63;23.57;;;;;;;;;;5081254;28;20473;-72
2022/08/13 05:23:23;;;;;;;44.57;25.80;;;;;;;;;;5069517;28;20466;-72
2022/08/13 05:26:10;;;;;;;34.17;23.67;;;;;;;;;;5069621;28;20436;-72
2022/08/13 05:29:02;;;;;;;39.73;24.47;;;;;;;;;;5059380;28;20530;-72
2022/08/13 05:31:33;;;;;;;46.60;26.53;;;;;;;;;;5072699;28;20439;-72
2022/08/13 05:34:20;;;;;;;34.60;24.70;;;;;;;;;;5073615;28;20536;-72
2022/08/13 05:36:47;;;;;;;38.57;26.30;;;;;;;;;;5073558;28;20471;-72
2022/08/13 05:39:33;;;;;;;49.43;27.30;;;;;;;;;;5073862;28;20428;-72
2022/08/13 05:42:08;;;;;;;35.30;25.10;;;;;;;;;;5090349;28;20432;-72
2022/08/13 05:44:35;;;;;;;36.90;24.27;;;;;;;;;;5073371;28;20490;-72
2022/08/13 05:47:04;;;;;;;42.83;27.03;;;;;;;;;;5057008;28;20432;-72
2022/08/13 05:49:31;;;;;;;40.73;26.03;;;;;;;;;;5073281;28;20471;-73
2022/08/13 05:52:08;;;;;;;38.83;25.23;;;;;;;;;;5057928;28;20509;-72
2022/08/13 05:54:56;;;;;;;34.93;23.10;;;;;;;;;;5073200;28;20460;-72
2022/08/13 05:57:43;;;;;;;37.63;27.00;;;;;;;;;;5074424;28;20448;-72
2022/08/13 06:03:24;;;;;;;30.53;22.40;;;;;;;;;;5073232;28;20448;-72
2022/08/13 06:06:14;;;;;;;31.80;22.90;;;;;;;;;;5059379;28;20543;-72
2022/08/13 06:08:46;;;;;;;33.70;21.60;;;;;;;;;;5073053;28;20554;-72
2022/08/13 06:11:17;;;;;;;29.00;21.20;;;;;;;;;;5072972;28;20998;-72
2022/08/13 06:14:03;;;;;;;29.40;19.60;;;;;;;;;;5073401;28;20528;-72
2022/08/13 06:16:33;;;;;;;26.13;19.13;;;;;;;;;;5072937;28;20433;-72
2022/08/13 06:19:20;;;;;;;23.27;18.10;;;;;;;;;;5073324;28;20859;-72
2022/08/13 06:21:55;;;;;;;21.17;18.33;;;;;;;;;;5072578;28;20429;-72
2022/08/13 06:24:27;;;;;;;26.90;17.63;;;;;;;;;;5088986;28;20474;-72
2022/08/13 06:26:55;;;;;;;21.60;15.93;;;;;;;;;;5056005;28;20421;-72
2022/08/13 06:29:23;;;;;;;18.67;15.23;;;;;;;;;;5072547;28;20501;-72
2022/08/13 06:31:55;;;;;;;21.57;16.10;;;;;;;;;;5072417;28;20425;-72
2022/08/13 06:34:24;;;;;;;18.50;14.63;;;;;;;;;;5072361;28;20508;-72
2022/08/13 06:37:02;;;;;;;22.03;14.70;;;;;;;;;;5057097;28;20428;-72
2022/08/13 06:39:29;;;;;;;19.70;14.90;;;;;;;;;;5072246;28;20467;-72
2022/08/13 06:41:59;;;;;;;18.07;14.90;;;;;;;;;;5073082;28;20956;-72
2022/08/13 06:44:30;;;;;;;18.43;14.53;;;;;;;;;;5072167;28;20866;-72
2022/08/13 06:46:56;;;;;;;22.43;16.20;;;;;;;;;;5072176;28;20480;-72
2022/08/13 06:49:25;;;;;;;17.97;14.77;;;;;;;;;;5071989;28;20451;-72
2022/08/13 06:51:57;;;;;;;18.30;15.50;;;;;;;;;;5072043;28;20464;-72
2022/08/13 06:54:24;;;;;;;18.77;14.90;;;;;;;;;;5055443;28;20518;-72
2022/08/13 06:56:57;;;;;;;22.87;16.70;;;;;;;;;;5072087;28;20429;-72
2022/08/13 06:59:39;;;;;;;21.20;15.30;;;;;;;;;;5071991;28;20458;-72
2022/08/13 07:02:28;;;;;;;17.87;15.90;;;;;;;;;;5071938;28;20429;-72
2022/08/13 07:04:58;;;;;;;21.30;15.00;;;;;;;;;;5060907;28;20936;-72
2022/08/13 07:07:25;;;;;;;21.17;14.43;;;;;;;;;;5088456;28;21267;-72
2022/08/13 07:09:52;;;;;;;15.73;13.93;;;;;;;;;;5093366;28;20526;-72
2022/08/13 07:12:20;;;;;;;20.03;12.20;;;;;;;;;;5068871;28;20482;-72
2022/08/13 07:14:50;;;;;;;14.80;11.40;;;;;;;;;;5071781;28;21297;-72
2022/08/13 07:17:26;;;;;;;11.20;10.20;;;;;;;;;;5071435;28;20464;-72
2022/08/13 07:19:59;;;;;;;10.93;9.97;;;;;;;;;;5090196;28;20480;-72
2022/08/13 07:22:34;;;;;;;10.47;9.20;;;;;;;;;;5097100;28;20955;-72
2022/08/13 07:25:24;;;;;;;12.80;10.27;;;;;;;;;;5070493;28;20435;-73
2022/08/13 07:28:15;;;;;;;10.13;7.97;;;;;;;;;;5095626;28;20436;-72
2022/08/13 07:31:05;;;;;;;13.83;10.07;;;;;;;;;;5090707;28;20497;-73
2022/08/13 07:33:44;;;;;;;11.10;8.77;;;;;;;;;;5057187;28;20453;-72
2022/08/13 07:36:24;;;;;;;14.60;9.63;;;;;;;;;;5084333;28;20754;-72
2022/08/13 07:38:51;;;;;;;9.73;8.80;;;;;;;;;;5065676;28;20547;-72
2022/08/13 07:41:20;;;;;;;9.47;6.40;;;;;;;;;;5061381;28;20439;-72
2022/08/13 07:43:47;;;;;;;6.43;5.80;;;;;;;;;;5063654;28;21017;-73
2022/08/13 07:46:34;;;;;;;8.30;5.17;;;;;;;;;;5065628;28;20408;-72
2022/08/13 07:49:01;;;;;;;5.60;5.03;;;;;;;;;;5077657;28;20487;-72
2022/08/13 07:51:31;;;;;;;6.97;4.60;;;;;;;;;;5084949;28;20420;-73
2022/08/13 07:54:05;;;;;;;5.80;4.90;;;;;;;;;;5071376;28;20480;-72
2022/08/13 07:56:35;;;;;;;5.23;4.73;;;;;;;;;;5081790;28;20813;-73
2022/08/13 07:59:04;;;;;;;5.03;4.63;;;;;;;;;;5078780;28;20969;-72
2022/08/13 08:01:33;;;;;;;11.37;5.67;;;;;;;;;;5061246;28;20480;-73
2022/08/13 08:04:21;;;;;;;6.53;4.40;;;;;;;;;;5064123;28;20429;-73
2022/08/13 08:06:56;;;;;;;5.70;5.20;;;;;;;;;;5070707;28;20444;-74
2022/08/13 08:09:24;;;;;;;8.03;4.37;;;;;;;;;;5074355;28;20458;-73
2022/08/13 08:14:55;;;;;;;6.30;4.50;;;;;;;;;;5045204;28;21058;-73
2022/08/13 08:17:26;;;;;;;5.83;5.33;;;;;;;;;;5070215;28;20988;-72
2022/08/13 08:20:18;;;;;;;5.27;4.43;;;;;;;;;;5071237;28;20529;-72
2022/08/13 08:23:05;;;;;;;5.30;4.77;;;;;;;;;;5051558;28;20430;-72
2022/08/13 08:25:36;;;;;;;4.90;4.33;;;;;;;;;;5072323;28;20420;-73
2022/08/13 08:28:18;;;;;;;4.30;4.00;;;;;;;;;;5073595;28;20448;-72
2022/08/13 08:31:06;;;;;;;4.33;4.03;;;;;;;;;;5078103;28;20816;-73
2022/08/13 08:33:56;;;;;;;4.07;3.77;;;;;;;;;;5060022;28;20984;-73
2022/08/13 08:36:23;;;;;;;4.20;3.90;;;;;;;;;;5074639;28;20777;-73
2022/08/13 08:44:40;;;;;;;3.80;3.60;;;;;;;;;;5069793;28;20421;-72
2022/08/13 08:47:08;;;;;;;3.80;3.60;;;;;;;;;;5052744;28;20433;-74
2022/08/13 08:49:35;;;;;;;3.67;3.37;;;;;;;;;;5069468;28;20585;-73
2022/08/13 08:52:10;;;;;;;3.90;3.60;;;;;;;;;;5066108;28;20426;-73
2022/08/13 08:54:38;;;;;;;4.13;3.83;;;;;;;;;;5073892;28;20905;-74
2022/08/13 08:57:06;;;;;;;3.57;3.30;;;;;;;;;;5072307;28;20535;-73
2022/08/13 08:59:35;;;;;;;3.43;3.13;;;;;;;;;;5069762;28;20512;-73
2022/08/13 09:02:18;;;;;;;4.27;3.47;;;;;;;;;;5070873;28;20467;-73
2022/08/13 09:04:53;;;;;;;4.53;4.13;;;;;;;;;;5075162;28;20421;-74
2022/08/13 09:07:26;;;;;;;4.77;3.03;;;;;;;;;;5073808;28;20547;-74
2022/08/13 09:09:56;;;;;;;3.97;3.40;;;;;;;;;;5071647;28;21270;-74
2022/08/13 09:12:25;;;;;;;3.80;3.50;;;;;;;;;;5071546;28;20479;-74
2022/08/13 09:14:56;;;;;;;3.83;3.40;;;;;;;;;;5072844;28;20429;-74
2022/08/13 09:17:23;;;;;;;3.87;3.57;;;;;;;;;;5070863;28;20465;-74
2022/08/13 09:20:02;;;;;;;3.70;3.50;;;;;;;;;;5069808;28;20485;-74
2022/08/13 09:22:29;;;;;;;4.23;3.83;;;;;;;;;;5069763;28;20460;-74
2022/08/13 09:24:58;;;;;;;2.87;2.67;;;;;;;;;;5086317;28;20432;-74
2022/08/13 09:27:28;;;;;;;5.70;3.30;;;;;;;;;;5070908;28;20948;-74
2022/08/13 09:30:16;;;;;;;3.50;3.20;;;;;;;;;;5069435;28;20432;-74
2022/08/13 09:32:52;;;;;;;2.97;2.77;;;;;;;;;;5069378;28;20468;-74
2022/08/13 09:35:19;;;;;;;3.77;3.00;;;;;;;;;;5086340;28;20851;-74
2022/08/13 09:37:48;;;;;;;3.10;2.90;;;;;;;;;;5069321;28;20506;-74
2022/08/13 09:40:23;;;;;;;3.77;3.37;;;;;;;;;;5069606;28;20774;-74
2022/08/13 09:43:27;;;;;;;2.97;2.77;;;;;;;;;;5086087;28;20514;-74
2022/08/13 09:46:17;;;;;;;3.17;2.87;;;;;;;;;;5069346;28;20436;-74
2022/08/13 09:48:50;;;;;;;3.20;3.00;;;;;;;;;;5085813;28;20449;-74
2022/08/13 09:51:19;;;;;;;3.30;3.10;;;;;;;;;;5069391;28;20436;-74
2022/08/13 09:54:08;;;;;;;3.70;3.40;;;;;;;;;;5070868;28;20452;-74
2022/08/13 09:56:38;;;;;;;2.87;2.67;;;;;;;;;;5086152;28;20424;-74
2022/08/13 09:59:06;;;;;;;4.27;3.97;;;;;;;;;;5070652;28;20796;-74
2022/08/13 10:01:41;;;;;;;3.40;3.20;;;;;;;;;;5081138;28;20435;-74
2022/08/13 10:04:23;;;;;;;3.03;2.83;;;;;;;;;;5089594;28;20427;-74
2022/08/13 10:06:50;;;;;;;3.10;2.90;;;;;;;;;;5089644;28;20445;-74
2022/08/13 10:09:28;;;;;;;2.40;2.27;;;;;;;;;;5089429;28;20536;-74
2022/08/13 10:12:00;;;;;;;3.13;2.90;;;;;;;;;;5070599;28;20419;-74
2022/08/13 10:14:47;;;;;;;2.80;2.60;;;;;;;;;;5069044;28;20551;-74
2022/08/13 10:17:24;;;;;;;2.73;2.53;;;;;;;;;;5073017;28;20456;-73
2022/08/13 10:20:12;;;;;;;2.83;2.33;;;;;;;;;;5099546;28;20437;-73
2022/08/13 10:22:42;;;;;;;4.43;2.70;;;;;;;;;;5075200;28;20420;-73
2022/08/13 10:25:08;;;;;;;2.40;2.17;;;;;;;;;;5092801;28;20772;-73
2022/08/13 10:27:35;;;;;;;2.47;2.37;;;;;;;;;;5092787;28;20494;-73
2022/08/13 10:30:15;;;;;;;2.60;2.40;;;;;;;;;;5094062;28;20419;-73
2022/08/13 10:33:02;;;;;;;2.73;2.53;;;;;;;;;;5091186;28;20452;-73
2022/08/13 10:35:29;;;;;;;2.93;2.73;;;;;;;;;;5056194;28;20487;-73
2022/08/13 10:37:59;;;;;;;2.43;2.33;;;;;;;;;;5073993;28;20463;-73
2022/08/13 10:40:32;;;;;;;3.03;2.83;;;;;;;;;;5074419;28;20526;-73
2022/08/13 10:43:05;;;;;;;3.10;2.60;;;;;;;;;;5059020;28;20467;-73
2022/08/13 10:45:31;;;;;;;3.27;2.57;;;;;;;;;;5054626;28;20825;-73
2022/08/13 10:48:00;;;;;;;3.13;2.83;;;;;;;;;;5052179;28;20523;-73
2022/08/13 10:50:29;;;;;;;3.60;3.30;;;;;;;;;;5072218;28;20443;-73
2022/08/13 10:52:57;;;;;;;6.43;2.87;;;;;;;;;;5071948;28;20954;-73
2022/08/13 10:55:24;;;;;;;4.50;3.90;;;;;;;;;;5072053;28;20928;-73
2022/08/13 10:57:52;;;;;;;4.10;3.80;;;;;;;;;;5073380;28;20449;-73
2022/08/13 11:00:32;;;;;;;7.63;3.37;;;;;;;;;;5058581;28;20425;-73
2022/08/13 11:02:59;;;;;;;3.83;3.53;;;;;;;;;;5088775;28;20829;-74
2022/08/13 11:05:26;;;;;;;4.50;3.10;;;;;;;;;;5072113;28;20435;-73
2022/08/13 11:07:53;;;;;;;4.17;3.27;;;;;;;;;;5055243;28;20492;-74
2022/08/13 11:10:21;;;;;;;3.13;2.93;;;;;;;;;;5071761;28;20502;-73
2022/08/13 11:12:51;;;;;;;3.17;2.97;;;;;;;;;;5071765;28;20421;-73
2022/08/13 11:15:38;;;;;;;3.03;2.70;;;;;;;;;;5071713;28;20436;-73
2022/08/13 11:18:13;;;;;;;5.17;3.73;;;;;;;;;;5056279;28;20558;-73
2022/08/13 11:23:24;;;;;;;3.60;3.40;;;;;;;;;;5072509;28;20984;-73
2022/08/13 11:25:52;;;;;;;3.53;3.20;;;;;;;;;;5091875;28;20419;-74
2022/08/13 11:28:38;;;;;;;3.37;3.17;;;;;;;;;;5077501;28;21025;-74
2022/08/13 11:31:05;;;;;;;3.63;3.33;;;;;;;;;;5091637;28;20466;-73
2022/08/13 11:33:32;;;;;;;2.80;2.60;;;;;;;;;;5074806;28;20470;-73
2022/08/13 11:36:18;;;;;;;3.77;3.47;;;;;;;;;;5091581;28;20427;-73
2022/08/13 11:38:45;;;;;;;3.83;3.53;;;;;;;;;;5091613;28;20849;-74
2022/08/13 11:41:13;;;;;;;3.97;3.67;;;;;;;;;;5092767;28;20416;-74
2022/08/13 11:43:44;;;;;;;3.13;2.93;;;;;;;;;;5075432;28;20435;-74
2022/08/13 11:46:22;;;;;;;3.77;3.50;;;;;;;;;;5092692;28;20424;-74
2022/08/13 11:48:49;;;;;;;4.03;3.73;;;;;;;;;;5092664;28;20447;-74
2022/08/13 11:51:36;;;;;;;4.03;3.73;;;;;;;;;;5091333;28;20442;-74
2022/08/13 11:54:19;;;;;;;3.90;3.60;;;;;;;;;;5076352;28;20464;-74
2022/08/13 11:57:00;;;;;;;3.67;3.37;;;;;;;;;;5092504;28;20418;-74
2022/08/13 11:59:26;;;;;;;5.17;3.37;;;;;;;;;;5090905;28;20808;-74
2022/08/13 12:02:06;;;;;;;3.90;3.50;;;;;;;;;;5092417;28;20476;-74
2022/08/13 12:04:40;;;;;;;5.83;3.83;;;;;;;;;;5075284;28;20443;-74
2022/08/13 12:07:07;;;;;;;4.60;4.17;;;;;;;;;;5090827;28;20522;-74
2022/08/13 12:09:40;;;;;;;4.30;4.00;;;;;;;;;;5075058;28;20939;-74
2022/08/13 12:12:13;;;;;;;3.70;3.50;;;;;;;;;;5068758;28;20440;-74
2022/08/13 12:14:48;;;;;;;8.53;3.90;;;;;;;;;;5070703;28;20505;-74
2022/08/13 12:17:16;;;;;;;4.30;3.90;;;;;;;;;;5070544;28;20448;-74
2022/08/13 12:20:02;;;;;;;5.33;4.90;;;;;;;;;;5070612;28;20446;-74
2022/08/13 12:22:46;;;;;;;6.37;5.93;;;;;;;;;;5070444;28;20437;-74
2022/08/13 12:25:17;;;;;;;4.13;3.73;;;;;;;;;;5086645;28;20454;-74
2022/08/13 12:28:13;;;;;;;4.53;3.47;;;;;;;;;;5070687;28;20464;-74
2022/08/13 12:30:52;;;;;;;3.90;3.70;;;;;;;;;;5070513;28;20412;-74
2022/08/13 12:33:20;;;;;;;4.10;3.80;;;;;;;;;;5075832;28;20477;-74
2022/08/13 12:35:48;;;;;;;3.83;3.57;;;;;;;;;;5078865;28;20428;-74
2022/08/13 12:38:24;;;;;;;4.27;4.00;;;;;;;;;;5066140;28;20441;-74
2022/08/13 12:40:56;;;;;;;5.50;3.40;;;;;;;;;;5067165;28;20441;-74
2022/08/13 12:43:25;;;;;;;4.30;4.00;;;;;;;;;;5074212;28;20544;-74
2022/08/13 12:46:12;;;;;;;5.57;4.80;;;;;;;;;;5091727;28;20426;-74
2022/08/13 12:48:38;;;;;;;4.50;4.17;;;;;;;;;;5073367;28;20535;-74
2022/08/13 12:51:07;;;;;;;5.13;4.77;;;;;;;;;;5090813;28;20823;-74
2022/08/13 12:53:33;;;;;;;4.33;4.03;;;;;;;;;;5094397;28;20415;-74
2022/08/13 12:56:20;;;;;;;3.83;3.50;;;;;;;;;;5079222;28;20961;-74
2022/08/13 12:58:54;;;;;;;5.83;3.97;;;;;;;;;;5094287;28;20442;-74
2022/08/13 13:01:21;;;;;;;3.93;3.47;;;;;;;;;;5064822;28;20433;-74
2022/08/13 13:03:50;;;;;;;4.33;3.93;;;;;;;;;;5068035;28;20503;-74
2022/08/13 13:06:18;;;;;;;3.67;3.47;;;;;;;;;;5069770;28;20436;-74
2022/08/13 13:08:59;;;;;;;3.70;3.40;;;;;;;;;;5070926;28;20448;-74
2022/08/13 13:11:28;;;;;;;4.70;3.80;;;;;;;;;;5053769;28;20778;-74
2022/08/13 13:14:15;;;;;;;3.50;3.23;;;;;;;;;;5057228;28;20456;-74
2022/08/13 13:17:01;;;;;;;4.10;3.70;;;;;;;;;;5084968;28;20438;-74
2022/08/13 13:19:28;;;;;;;3.50;3.30;;;;;;;;;;5062101;28;20441;-74
2022/08/13 13:22:14;;;;;;;4.53;4.23;;;;;;;;;;5069933;28;20426;-74
2022/08/13 13:24:41;;;;;;;4.30;3.90;;;;;;;;;;5052916;28;20954;-74
2022/08/13 13:27:28;;;;;;;4.00;3.70;;;;;;;;;;5055545;28;20496;-74
2022/08/13 13:30:12;;;;;;;3.80;3.50;;;;;;;;;;5070917;28;20435;-74
2022/08/13 13:32:43;;;;;;;3.73;3.43;;;;;;;;;;5069700;28;20425;-74
2022/08/13 13:35:14;;;;;;;3.90;3.60;;;;;;;;;;5069484;28;20567;-74
2022/08/13 13:38:01;;;;;;;3.57;3.27;;;;;;;;;;5070699;28;20450;-74
2022/08/13 13:40:44;;;;;;;6.30;4.20;;;;;;;;;;5069645;28;20963;-74
2022/08/13 13:43:15;;;;;;;4.00;3.77;;;;;;;;;;5070673;28;21001;-75
2022/08/13 13:45:55;;;;;;;3.60;3.33;;;;;;;;;;5069118;28;20467;-75
2022/08/13 13:48:32;;;;;;;4.60;3.73;;;;;;;;;;5070662;28;20440;-74
2022/08/13 13:51:00;;;;;;;3.43;3.23;;;;;;;;;;5069782;28;20523;-74
2022/08/13 13:53:29;;;;;;;4.00;3.70;;;;;;;;;;5073105;28;20440;-74
2022/08/13 13:56:17;;;;;;;4.20;3.80;;;;;;;;;;5059314;28;20448;-74
2022/08/13 13:58:46;;;;;;;3.60;3.40;;;;;;;;;;5072994;28;20459;-74
2022/08/13 14:01:23;;;;;;;4.00;3.70;;;;;;;;;;5088923;28;20791;-74
2022/08/13 14:03:51;;;;;;;4.50;4.00;;;;;;;;;;5073263;28;20528;-74
2022/08/13 14:06:26;;;;;;;3.97;3.67;;;;;;;;;;5057781;28;20467;-74
2022/08/13 14:08:53;;;;;;;4.07;3.87;;;;;;;;;;5074120;28;20883;-74
2022/08/13 14:11:20;;;;;;;4.67;3.43;;;;;;;;;;5074308;28;20482;-74
2022/08/13 14:13:47;;;;;;;4.03;3.73;;;;;;;;;;5056279;28;20468;-75
2022/08/13 14:16:14;;;;;;;3.63;3.33;;;;;;;;;;5072788;28;20441;-74
2022/08/13 14:18:42;;;;;;;7.00;4.87;;;;;;;;;;5077397;28;20947;-75
2022/08/13 14:21:11;;;;;;;5.00;4.70;;;;;;;;;;5080811;28;20425;-75
2022/08/13 14:23:38;;;;;;;4.10;3.80;;;;;;;;;;5072686;28;20826;-75
2022/08/13 14:26:12;;;;;;;4.63;3.93;;;;;;;;;;5072636;28;20441;-75
2022/08/13 14:28:43;;;;;;;3.93;3.67;;;;;;;;;;5072768;28;20439;-75
2022/08/13 14:31:12;;;;;;;4.60;4.20;;;;;;;;;;5072501;28;20962;-75
2022/08/13 14:33:40;;;;;;;4.87;4.27;;;;;;;;;;5072462;28;20436;-75
2022/08/13 14:36:26;;;;;;;7.17;3.93;;;;;;;;;;5073810;28;20416;-75
2022/08/13 14:39:04;;;;;;;3.60;3.40;;;;;;;;;;5072316;28;21039;-74
2022/08/13 14:41:46;;;;;;;6.03;4.50;;;;;;;;;;5073755;28;20520;-75
2022/08/13 14:44:12;;;;;;;5.43;4.63;;;;;;;;;;5073631;28;20456;-75
2022/08/13 14:46:59;;;;;;;4.23;3.93;;;;;;;;;;5075074;28;20439;-75
2022/08/13 14:49:38;;;;;;;4.40;4.10;;;;;;;;;;5077295;28;20511;-75
2022/08/13 14:52:22;;;;;;;4.90;4.47;;;;;;;;;;5076864;28;20514;-75
2022/08/13 14:55:05;;;;;;;9.83;4.63;;;;;;;;;;5076815;28;20861;-75
2022/08/13 14:57:33;;;;;;;4.10;3.90;;;;;;;;;;5073308;28;21042;-75
2022/08/13 15:00:09;;;;;;;4.97;4.57;;;;;;;;;;5056561;28;20436;-75
2022/08/13 15:02:50;;;;;;;5.27;4.87;;;;;;;;;;5071699;28;20474;-75
2022/08/13 15:05:37;;;;;;;4.87;4.40;;;;;;;;;;5086158;28;20448;-75
2022/08/13 15:08:20;;;;;;;5.50;5.00;;;;;;;;;;5071807;28;20510;-75
2022/08/13 15:11:00;;;;;;;4.93;4.63;;;;;;;;;;5087199;28;20421;-74
2022/08/13 15:13:34;;;;;;;14.63;5.10;;;;;;;;;;5072985;28;20481;-75
2022/08/13 15:16:23;;;;;;;5.57;5.00;;;;;;;;;;5088638;28;20428;-75
2022/08/13 15:18:51;;;;;;;5.30;4.90;;;;;;;;;;5072811;28;20834;-75
2022/08/13 15:21:20;;;;;;;5.73;5.13;;;;;;;;;;5071647;28;20440;-75
2022/08/13 15:24:07;;;;;;;5.00;4.53;;;;;;;;;;5071627;28;20490;-74
2022/08/13 15:26:39;;;;;;;5.80;5.20;;;;;;;;;;5072143;28;20874;-74
2022/08/13 15:29:05;;;;;;;5.10;4.80;;;;;;;;;;5088309;28;21262;-75
2022/08/13 15:31:32;;;;;;;5.20;4.80;;;;;;;;;;5071556;28;20833;-75
2022/08/13 15:33:59;;;;;;;4.70;4.40;;;;;;;;;;5088028;28;20454;-74
2022/08/13 15:36:26;;;;;;;4.23;3.83;;;;;;;;;;5071391;28;20527;-74
2022/08/13 15:39:13;;;;;;;5.23;4.80;;;;;;;;;;5071211;28;20551;-74
2022/08/13 15:41:46;;;;;;;5.20;4.70;;;;;;;;;;5071252;28;20425;-74